Airfield :
LOGIN :

Register | Disclaimer

   EN    FR    IT 

 










Legend :    VFR   Marginal VFR   IFR   Intensive IFR   Very Intensive IFR
Visi :
Ceiling :
>= 8 km
>= 3000ft
5 to 8 km
1000 to 3000 ft
1500m to 5 km
500 to 1000 ft
800 to 1500m
200 to 500 ft
< 800m
< 200 ft
Symbols :   Thunderstorms  Fog  Heavy snow  Heavy precipitations  Wind > 20 kt
SIGMETs :     Misc.  Thunderstorms  Icing  Turbulence  Mountain Waves  Volcanic Ashes






- Airport Elevation : 325 ft
- IATA code : BES


LFRB - Brest

CURRENT METAR :
  • 280900Z AUTO 25007KT 9999 SCT031/// BKN037/// BKN049/// //////CB 09/07 Q1011 TEMPO 30020G35KT 3000 SHRA BKN012 BKN020CB

EXPIRED METARs :
  • 280830Z AUTO 25010KT 230V290 9999 FEW025/// SCT032/// BKN041/// ///CB 08/07 Q1011 TEMPO 30020G35KT 3000 SHRA BKN012 BKN020CB
  • 280800Z AUTO 26006KT 9999 FEW031/// SCT049/// BKN120/// ///CB 08/05 Q1011 TEMPO 30020G35KT 3000 SHRA BKN012 BKN020CB
  • 280730Z AUTO 28010KT 9999 SCT041/// BKN056/// BKN088/// ///CB 08/06 Q1010 TEMPO 30020G35KT 3000 SHRA BKN012 BKN020CB
  • 280700Z AUTO 28015KT 250V310 6000 RA SCT018/// BKN035/// BKN056/// ///CB 08/06 Q1011 TEMPO VRB20G40KT 1400 TSRAGS BKN012CB
  • 280630Z AUTO 24007KT 9999 FEW042/// SCT058/// BKN130/// ///CB 08/05 Q1010 TEMPO VRB20G40KT 1400 TSRAGS BKN012CB
  • 280600Z AUTO 24010KT 9999 SCT046/// SCT060/// BKN078/// ///CB 08/06 Q1010 TEMPO VRB20G40KT 1400 TSRAGS BKN012CB

TAF TAF LFRB
Valid from the 28 at 06:00 until the 29 at 12:00 UTC


280500Z 2806/2912 24010KT 9999 SCT025
TEMPO 2806/2809 3000 SHRA BKN012CB
PROB40
TEMPO 2806/2809 VRB20G40KT 1400 TSRAGS
BECMG 2806/2808 30015G25KT
PROB40
TEMPO 2809/2815 30020G35KT 3000 SHRA BKN012 BKN020CB
BECMG 2815/2817 30010KT
PROB40
TEMPO 2815/2823 4000 SHRA BKN020TCU SCT025CB
BECMG 2820/2822 VRB05KT
PROB40
TEMPO 2823/2907 3000 BR
ATIS : +33 2 98 32 02 71



MET'MAP, your aeronautical weather chart ! - Copyright ORBIFLY December 2007 - Disclaimer

ORBIFLY MET'MAP TEAM :

Programming & Development : Alexandra Zaïnal
Original concept : Baudouin d'Aumeries
Technical & hardware support : Manuel Goepfert
Assistance : Marc-Olivier Méhu




SOURCES & CREDITS :

   NOAA